Impacts TAF Board INFO
FOR SITUATIONAL AWARENESS. NOT TO BE USED FOR FLIGHT PLANNING PURPOSES.
IDs:

KPHL - Philadelphia Intl, PA, US

Issued at 1401 UTC 16 Jan 2018
Updated at 1501 UTC 16 Jan 2018
Potential Impact None Slight Moderate High
Time1454Z 16/15Z 16/16Z 16/17Z 16/18Z 16/19Z 16/20Z 16/21Z 16/22Z 16/23Z 17/00Z 17/01Z 17/02Z 17/03Z>>
Type OBS PRVL
  [TEMP]  
PRVL PRVL PRVL PRVL PRVL PRVL PRVL PRVL PRVL PRVL PRVL PRVL
VIS 10 >6 >6 >6 >6 >6 >6 >6 >6 >6 >6 >6 >6 >6
CIG 31 40
  [25]  
35 35 35 35 35 35 35 35 35 15 15 15
Cover BKN OVC
  [OVC]  
BKN BKN BKN BKN BKN BKN BKN BKN BKN OVC OVC OVC
FltCat VFR VFR
  [MVFR]  
VFR VFR VFR VFR VFR VFR VFR VFR VFR MVFR MVFR MVFR
WX -- --
  [--]  
-- -- -- -- -- -- -- -- -- -- -- --
WDir 60 90
[90]
150 150 150 150 150 150 150 150 150 70 70 70
WSpd 4 5
  [5]  
4 4 4 4 4 4 4 4 4 4 4 4
WGst -- --
  [--]  
-- -- -- -- -- -- -- -- -- -- -- --

Raw TAF
KPHL 161401Z 1614/1718 09005KT P6SM SCT025 OVC040
  TEMPO 1614/1616 OVC025
  FM161600 15004KT P6SM SCT015 BKN035
  FM170100 07004KT P6SM OVC015
  FM170500 02004KT 1SM -SN OVC005
  FM171000 34010KT 2SM -SN OVC008
  FM171400 31012G22KT P6SM BKN025


Raw METAR
KPHL 161454Z 06004KT 10SM BKN031 BKN060 01/M03 A3051 RMK AO2 SLP330 60000 T00061033 51003
KPHL 161354Z 08005KT 10SM FEW024 SCT031 BKN065 M01/M04 A3050 RMK AO2 SNE20 SLP327 P0000 T10061039
KPHL 161320Z 07005KT 10SM SCT024 BKN032 OVC075 M01/M04 A3050 RMK AO2 SNE20 VCSH P0000 T10111039
KPHL 161254Z 06004KT 9SM -SN BKN024 BKN035 OVC075 M01/M04 A3051 RMK AO2 SNB25 SLP330 P0000 T10111039 $
KPHL 161242Z 00000KT 8SM -SN BKN024 BKN035 OVC075 M01/M04 A3051 RMK AO2 SNB25 P0000 T10111044 $
KPHL 161225Z 03005KT 5SM -SN BKN024 OVC032 M01/M04 A3051 RMK AO2 SNB25 P0000 T10111044 $
KPHL 161154Z 07003KT 10SM BKN024 OVC030 M01/M04 A3050 RMK AO2 SLP327 T10111044 11011 21017 53006 $

METAR Board
Radar Display
Forecast Discussion

FOR SITUATIONAL AWARENESS. NOT TO BE USED FOR FLIGHT PLANNING PURPOSES.